Solovki, Russia
Current Conditions -  °F | °C
As of 2:30 PM on Wednesday 26 Nov 2014 (Local Time) from ULAA Reporting Station
Haze Haze  
Wind Chill: 32°   Ceiling: 300
Heat Index: 32°   Visibility: 1.6mi
Dew Point: 32°   Wind: 2mph
Humidity: 100%   Direction: NA
Pressure: 30.18"   Gusts: NA
Location:  65.2°N, 35.3°E
Report Text: ULAA 261130Z VRB01MPS 2700 BR OVC003 M00/M00 Q1022 TEMPO 0400+SHSN FZFG BKN002CB RMK QBB110 QFE765/1021 SC037
Loading
Personal Weather Stations






























Interactive Weather Map New forecast layout! Learn more

10-Day Weather Forecast

Advertisements
Track Severe Weather on mobile